Terminal Aerodrome Forecast
Issued by NWS Dallas/Fort Worth, TX

Home | Current Version | Previous Version | Text Only | Print | Product List | Glossary On
Versions: 1 2 3 4 5 6 7 8 9 10 11 12 13 14 15 16 17 18 19 20 21 22 23 24 25 26 27
055
FTUS44 KFWD 301135
TAFACT
TAF
KACT 301135Z 3012/3112 17018KT 6SM -RA SCT020 BKN100
     FM301300 17012KT P6SM SCT020 BKN100
      TEMPO 3013/3015 BKN020
     FM301600 17009KT P6SM SCT100
     FM310900 16008KT P6SM BKN015=

USA.gov is the U.S. government's official web portal to all federal, state and local government web resources and services.